CLJ weather

Cluj-Napoca International Airport
Cluj-Napoca, Cluj, Romania

Public forecast

Using degrees Celsius for public forecast. Weather courtesy of forecast.io.

METAR (pilot weather report)

Retrieved 2019/05/19 11:30 UTC (19 minutes ago):

LRCL 191130Z 10010KT 9999 FEW036 FEW040CB 25/11 Q1008

TAF (pilot weather forecast)

Forecast is more than 12 hours old.

Closest forecast is Câmpia Turzii Air Base, 18.9 nm (35.0 km) SSE. Retrieved 2019/05/18 00:52 UTC (1 day ago):

TAF LRCT 182300Z 1900/2000 VRB04KT 9999 SKC TEMPO 1902/1906 3000 BR BECMG 1909/1911 15008KT SCT040 PROB30 TEMPO 1912/1916 VRB15KT 6000 TSRA SCT030CB BKN080